Aérodrome :
LOGIN :

S'inscrire | Disclaimer

   EN    FR    IT 

 










Légende :    VFR   VFR Marginal   IFR   IFR Intensif   IFR Très Intensif
Visi : 
Plafond : 
>= 8 km
>= 3000ft
5 à 8 km
1000 à 3000 ft
1500m à 5 km
500 à 1000 ft
800 à 1500m
200 à 500 ft
< 800m
< 200 ft
Symboles :   Orages  Brouillard  Fortes neiges  Fortes précipitations  Vent > 20 kt
SIGMETs :   Divers  Orages  Givrage  Turbulence  Onde Orograph.  Cendres Volcan.







- Altitude de l'aérodrome : 297 ft


EGVP - Middle Wallop

DERNIER METAR :
  • 230950Z 20009KT 9999 BKN016 17/13 Q1011 TEMPO FEW016 RMK WHT TEMPO BLU

METARs EXPIRÉS :
  • 230920Z 18005KT 9999 FEW016 16/13 Q1011 NOSIG RMK BLU BLU
  • 230850Z 18005KT 9999 FEW008 15/14 Q1011 NOSIG RMK BLU BLU
  • 230820Z 17003KT 9999 FEW022 SCT035 14/13 Q1011 NOSIG RMK BLU BLU
  • 230807Z 16004KT 9999 FEW022 SCT035 14/12 Q1011 TEMPO 5000 SHRA SCT020 RMK BLU TEMPO WHT
  • 230750Z 18003KT 9999 5000SE VCSH FEW022 BKN035 13/12 Q1011 TEMPO 9999 NSW RMK WHT TEMPO BLU
  • 230720Z 17003KT 9999 FEW008 13/12 Q1011 NOSIG RMK BLU BLU

TAF TAF EGVP
Valide du 23 à 09h jusqu'au 23 à 18h UTC


230759Z 2309/2318 19008KT 9999 SCT030
TEMPO 2309/2312 5000 -SHRA SCT020
BECMG 2312/2314 BKN018
BECMG 2314/2316 BKN010
TEMPO 2314/2318 6000 RA
TEMPO 2316/2317 SCT005 BKN007
TEMPO 2317/2318 SCT004 BKN006
ATIS : +44 1980 674 142
Pas de NOTAMs connus pour ce terrain.



MET'MAP, la Météo Aéronautique d'un coup d'oeil ! - Copyright ORBIFLY Décembre 2007 - Disclaimer

ORBIFLY MET'MAP TEAM :

Programmation & Développement : Alexandra Zaïnal
Conception & Développement : Baudouin d'Aumeries
Co-Programmation & Développement : Marc-Olivier Méhu
Soutien technique & logistique : Manuel Goepfert

Contact : metmap@orbifly.com




SOURCES & CREDITS :

   NOAA